createdAt,value
2022-12-19T08:30:26.838Z,16.67
2022-12-19T08:31:55.784Z,16.92
2022-12-19T08:32:56.877Z,17.12
2022-12-19T08:33:56.955Z,17.35
2022-12-19T08:34:57.038Z,17.62
2022-12-19T08:35:57.128Z,17.84
2022-12-19T08:36:57.182Z,18.01
2022-12-19T08:37:57.251Z,18.10
2022-12-19T08:38:57.337Z,18.20
2022-12-19T08:39:57.384Z,18.28
2022-12-19T08:40:57.488Z,18.38
2022-12-19T08:41:57.512Z,18.44
2022-12-19T08:42:57.589Z,18.54
2022-12-19T08:43:57.659Z,18.59
2022-12-19T08:44:57.745Z,18.62
2022-12-19T08:45:57.872Z,18.66
2022-12-19T08:46:57.877Z,18.74
2022-12-19T08:47:57.961Z,18.75
2022-12-19T08:48:58.041Z,18.76
2022-12-19T08:49:58.115Z,18.78
2022-12-19T08:50:58.205Z,18.83
2022-12-19T08:51:58.264Z,18.87
2022-12-19T08:52:58.343Z,18.86
2022-12-19T08:53:58.409Z,18.97
2022-12-19T08:54:58.493Z,18.96
2022-12-19T08:55:58.589Z,18.96
2022-12-19T08:56:58.629Z,18.97
2022-12-19T08:57:58.704Z,18.97
2022-12-19T08:58:58.778Z,19.02
2022-12-19T08:59:58.843Z,19.02
2022-12-19T09:01:04.982Z,19.05
2022-12-19T09:01:59.322Z,19.02
2022-12-19T09:02:59.320Z,19.09
2022-12-19T09:05:32.495Z,19.09
2022-12-19T09:06:12.117Z,19.10
2022-12-19T09:06:21.863Z,19.13
2022-12-19T09:07:17.233Z,19.16
2022-12-19T09:08:17.317Z,19.17
2022-12-19T09:09:17.385Z,19.16
2022-12-19T09:10:17.470Z,19.15
2022-12-19T09:11:17.544Z,19.15
2022-12-19T09:12:17.615Z,19.15
2022-12-19T09:13:17.709Z,19.21
2022-12-19T09:14:21.193Z,19.21
2022-12-19T09:15:17.879Z,19.27
2022-12-19T09:16:18.028Z,19.38
2022-12-19T09:17:18.023Z,19.43
2022-12-19T09:18:18.094Z,19.61
2022-12-19T09:19:18.187Z,19.52
2022-12-19T09:20:23.169Z,19.61
2022-12-19T09:21:18.358Z,19.61
2022-12-19T09:22:18.396Z,19.61
2022-12-19T09:23:18.471Z,19.58
2022-12-19T09:24:18.535Z,19.57
2022-12-19T09:25:18.619Z,19.57
2022-12-19T09:26:18.708Z,19.57
2022-12-19T09:27:18.771Z,19.58
2022-12-19T09:28:27.368Z,19.61
2022-12-19T09:29:21.084Z,19.64
2022-12-19T09:30:19.014Z,19.67
2022-12-19T09:31:19.168Z,19.71
2022-12-19T09:32:19.175Z,19.75
2022-12-19T09:33:19.262Z,19.72
2022-12-19T09:34:19.326Z,19.70
2022-12-19T09:35:19.431Z,19.70
2022-12-19T09:36:19.528Z,19.72
2022-12-19T09:37:19.603Z,19.72
2022-12-19T09:38:19.658Z,19.72
2022-12-19T09:39:19.731Z,19.76
2022-12-19T09:40:19.802Z,19.75
2022-12-19T09:41:19.903Z,19.76
2022-12-19T09:42:19.973Z,19.83
2022-12-19T09:43:20.043Z,19.85
2022-12-19T09:44:20.123Z,19.83
2022-12-19T09:45:31.740Z,19.82
2022-12-19T09:46:20.521Z,19.80
2022-12-19T09:47:20.395Z,19.83
2022-12-19T09:48:24.638Z,19.82
2022-12-19T09:49:20.713Z,19.80
2022-12-19T09:50:20.649Z,19.82
2022-12-19T09:51:20.719Z,19.80
2022-12-19T09:52:20.830Z,19.79
2022-12-19T09:53:20.916Z,19.82
2022-12-19T09:54:20.987Z,19.82
2022-12-19T09:55:21.062Z,19.83
2022-12-19T09:56:21.122Z,19.86
2022-12-19T09:57:21.204Z,19.89
2022-12-19T09:58:21.292Z,19.90
2022-12-19T09:59:22.581Z,19.89
2022-12-19T10:00:21.534Z,19.92
2022-12-19T10:01:21.595Z,19.95
2022-12-19T10:02:22.027Z,19.97
2022-12-19T10:03:21.712Z,20.01
2022-12-19T10:04:21.723Z,20.04
2022-12-19T10:06:00.409Z,20.05
2022-12-19T10:07:46.835Z,20.07
2022-12-19T10:08:09.467Z,20.02
2022-12-19T10:08:31.181Z,19.98
2022-12-19T10:12:18.099Z,19.95
2022-12-19T10:12:53.147Z,20.00
2022-12-19T10:13:00.501Z,19.92
2022-12-19T10:13:59.757Z,19.94
2022-12-19T10:14:59.890Z,19.94
2022-12-19T10:16:00.835Z,19.97
2022-12-19T10:17:23.204Z,19.95
2022-12-19T10:18:00.146Z,19.94
2022-12-19T10:19:00.211Z,19.98
2022-12-19T10:20:00.300Z,20.02
2022-12-19T10:21:00.361Z,20.02
2022-12-19T10:22:17.639Z,20.07
2022-12-19T10:23:00.581Z,20.10
2022-12-19T10:24:00.639Z,20.07
2022-12-19T10:25:09.077Z,20.07
2022-12-19T10:26:00.827Z,20.07
2022-12-19T10:27:00.882Z,20.10
2022-12-19T10:28:00.949Z,20.05
2022-12-19T10:29:01.025Z,20.04
2022-12-19T10:30:01.129Z,20.07
2022-12-19T10:31:07.279Z,20.07
2022-12-19T10:32:01.368Z,20.10
2022-12-19T10:33:01.346Z,20.12
2022-12-19T10:34:01.501Z,20.12
2022-12-19T10:35:01.553Z,20.12
2022-12-19T10:36:02.338Z,20.12
2022-12-19T10:37:26.946Z,20.12
2022-12-19T10:38:01.735Z,20.13
2022-12-19T10:39:01.825Z,20.13
2022-12-19T10:40:01.897Z,20.15
2022-12-19T10:41:01.966Z,20.15
2022-12-19T10:42:02.052Z,20.17
2022-12-19T10:43:10.319Z,20.19
2022-12-19T10:44:02.228Z,20.16
2022-12-19T10:45:02.339Z,20.13
2022-12-19T10:46:02.429Z,20.13
2022-12-19T10:47:03.913Z,20.10
2022-12-19T10:48:02.538Z,20.10
2022-12-19T10:49:02.619Z,20.12
2022-12-19T10:50:09.247Z,20.13
2022-12-19T10:51:06.861Z,20.19
2022-12-19T10:52:02.870Z,20.31
2022-12-19T10:53:02.978Z,20.34
2022-12-19T10:54:03.028Z,20.33
2022-12-19T10:55:03.145Z,20.30
2022-12-19T10:56:03.220Z,20.26
2022-12-19T10:57:03.262Z,20.27
2022-12-19T10:58:03.408Z,20.31
2022-12-19T10:59:03.426Z,20.34
2022-12-19T11:00:03.519Z,20.34
2022-12-19T11:01:03.577Z,20.31
2022-12-19T11:02:07.204Z,20.50
2022-12-19T11:03:03.893Z,20.64
2022-12-19T11:04:03.834Z,20.68
2022-12-19T11:05:04.058Z,20.81
2022-12-19T11:06:03.985Z,20.87
2022-12-19T11:07:04.050Z,21.01
2022-12-19T11:08:04.152Z,21.06
2022-12-19T11:09:04.213Z,21.11
2022-12-19T11:11:03.250Z,21.22
2022-12-19T11:16:49.158Z,21.16
2022-12-19T11:29:44.753Z,21.26
2022-12-19T11:32:40.316Z,21.53
2022-12-19T11:35:08.607Z,21.64
2022-12-19T11:36:38.612Z,21.56
2022-12-19T11:37:28.801Z,21.64
2022-12-19T11:38:28.908Z,21.63
2022-12-19T11:39:29.079Z,21.61
2022-12-19T11:40:29.076Z,21.36
2022-12-19T11:41:29.195Z,21.13
2022-12-19T11:42:29.247Z,20.88
2022-12-19T11:43:46.203Z,20.76
2022-12-19T11:44:30.122Z,20.71
2022-12-19T11:45:29.520Z,20.66
2022-12-19T11:46:29.564Z,20.60
2022-12-19T11:47:29.647Z,20.53
2022-12-19T11:48:29.739Z,20.56
2022-12-19T11:49:29.812Z,20.51
2022-12-19T11:50:29.906Z,20.51
2022-12-19T11:51:29.974Z,20.50
2022-12-19T11:53:02.763Z,20.51
2022-12-19T11:53:30.144Z,20.57
2022-12-19T11:54:30.198Z,20.56
2022-12-19T11:55:30.263Z,20.60
2022-12-19T11:56:30.338Z,20.60
2022-12-19T11:57:30.560Z,20.54
2022-12-19T11:58:30.490Z,20.50
2022-12-19T11:59:30.567Z,20.42
2022-12-19T12:00:30.687Z,20.40
2022-12-19T12:01:30.760Z,20.37
2022-12-19T12:02:30.842Z,20.34
2022-12-19T12:03:31.011Z,20.30
2022-12-19T12:04:30.996Z,20.26
2022-12-19T12:05:31.035Z,20.25
2022-12-19T12:06:31.667Z,20.25
2022-12-19T12:09:20.804Z,20.23
2022-12-19T12:22:20.253Z,20.22
2022-12-19T12:35:46.909Z,20.31
2022-12-19T12:38:24.988Z,20.33
2022-12-19T12:39:04.133Z,20.35
2022-12-19T12:40:04.002Z,20.35
2022-12-19T12:41:04.049Z,20.34
2022-12-19T12:42:04.163Z,20.35
2022-12-19T12:43:04.229Z,20.34
2022-12-19T12:44:04.332Z,20.37
2022-12-19T12:45:04.370Z,20.37
2022-12-19T12:46:04.525Z,20.37
2022-12-19T12:47:04.563Z,20.35
2022-12-19T12:48:04.630Z,20.37
2022-12-19T12:49:04.723Z,20.35
2022-12-19T12:50:04.763Z,20.38
2022-12-19T12:51:04.841Z,20.38
2022-12-19T12:52:04.902Z,20.38
2022-12-19T12:53:04.977Z,20.37
2022-12-19T12:54:05.086Z,20.37
2022-12-19T12:55:05.136Z,20.37
2022-12-19T12:56:05.696Z,20.35
2022-12-19T12:57:05.307Z,20.35
2022-12-19T12:58:09.188Z,20.40
2022-12-19T12:59:05.534Z,20.44
2022-12-19T13:00:05.582Z,20.51
2022-12-19T13:01:05.730Z,20.50
2022-12-19T13:02:05.984Z,20.44
2022-12-19T13:03:06.019Z,20.44
2022-12-19T13:04:05.876Z,20.44
2022-12-19T13:05:05.944Z,20.41
2022-12-19T13:06:06.036Z,20.40
2022-12-19T13:07:06.082Z,20.37
2022-12-19T13:08:06.191Z,20.54
2022-12-19T13:09:06.275Z,20.78
2022-12-19T13:10:06.350Z,21.00
2022-12-19T13:11:06.451Z,21.13
2022-12-19T13:12:06.520Z,21.24
2022-12-19T13:13:10.915Z,21.31
2022-12-19T13:14:06.747Z,21.45
2022-12-19T13:15:06.766Z,21.53
2022-12-19T13:16:06.839Z,21.55
2022-12-19T13:17:06.996Z,21.56
2022-12-19T13:18:06.969Z,21.56
2022-12-19T13:19:11.479Z,21.59
2022-12-19T13:20:07.142Z,21.63
2022-12-19T13:21:07.480Z,21.70
2022-12-19T13:22:07.507Z,21.75
2022-12-19T13:23:07.419Z,21.79
2022-12-19T13:24:07.441Z,21.81
2022-12-19T13:25:07.549Z,21.82
2022-12-19T13:26:07.645Z,21.83
2022-12-19T13:27:07.725Z,21.81
2022-12-19T13:28:07.830Z,21.85
2022-12-19T13:29:07.869Z,21.91
2022-12-19T13:30:08.087Z,21.91
2022-12-19T13:31:20.927Z,21.91
2022-12-19T13:32:08.150Z,21.94
2022-12-19T13:33:08.225Z,21.96
2022-12-19T13:34:08.278Z,21.98
2022-12-19T13:36:14.374Z,21.94
2022-12-19T13:40:11.025Z,21.99
2022-12-19T13:40:20.610Z,21.94
2022-12-19T13:41:07.993Z,22.01
2022-12-19T13:42:08.096Z,22.04
2022-12-19T13:43:09.659Z,22.05
2022-12-19T13:44:08.219Z,22.04
2022-12-19T13:45:08.323Z,21.99
2022-12-19T13:46:08.405Z,21.67
2022-12-19T13:47:08.427Z,21.43
2022-12-19T13:48:08.520Z,21.27
2022-12-19T13:49:08.596Z,21.16
2022-12-19T13:50:08.690Z,21.06
2022-12-19T13:51:08.782Z,21.00
2022-12-19T13:52:08.861Z,20.98
2022-12-19T13:53:09.029Z,20.91
2022-12-19T13:54:09.033Z,20.87
2022-12-19T13:55:09.127Z,20.87
2022-12-19T13:56:09.288Z,20.87
2022-12-19T13:57:10.008Z,20.85
2022-12-19T13:58:09.406Z,20.83
2022-12-19T13:59:09.504Z,20.85
2022-12-19T14:00:09.644Z,20.82
2022-12-19T14:01:11.484Z,20.83
2022-12-19T14:02:09.880Z,20.82
2022-12-19T14:03:10.104Z,20.82
2022-12-19T14:04:09.884Z,20.82
2022-12-19T14:05:09.951Z,20.79
2022-12-19T14:06:15.940Z,20.81
2022-12-19T14:07:10.112Z,20.78
2022-12-19T14:08:10.180Z,20.76
2022-12-19T14:11:24.215Z,20.78
2022-12-19T14:13:40.157Z,20.78
2022-12-19T14:14:00.917Z,20.73
2022-12-19T14:14:16.506Z,20.75
2022-12-19T14:15:02.095Z,20.76
2022-12-19T14:15:56.612Z,20.79
2022-12-19T14:16:56.697Z,20.76
2022-12-19T14:17:56.769Z,20.81
2022-12-19T14:18:56.854Z,20.83
2022-12-19T14:20:48.806Z,20.81
2022-12-19T14:22:20.728Z,20.78
2022-12-19T14:22:29.571Z,20.78
2022-12-19T14:23:42.859Z,20.82
2022-12-19T14:24:22.801Z,20.81
2022-12-19T14:27:57.366Z,20.82
2022-12-19T14:28:31.981Z,20.85
2022-12-19T14:28:36.871Z,20.78
2022-12-19T14:30:31.657Z,20.81
2022-12-19T14:30:37.291Z,20.78
2022-12-19T14:31:37.134Z,20.76
2022-12-19T14:33:44.567Z,20.76
2022-12-19T14:35:04.030Z,20.82
2022-12-19T14:36:18.646Z,20.75
2022-12-19T14:36:37.548Z,20.71
2022-12-19T14:39:03.008Z,20.71
2022-12-19T14:39:29.313Z,20.72
2022-12-19T14:39:37.773Z,20.69
2022-12-19T14:41:00.163Z,20.68
2022-12-19T14:41:37.933Z,20.69
2022-12-19T14:43:56.138Z,20.69
2022-12-19T14:54:18.062Z,20.68
2022-12-19T14:56:17.806Z,20.69
2022-12-19T14:56:59.177Z,20.72
2022-12-19T14:57:05.372Z,20.75
2022-12-19T14:58:50.817Z,20.78
2022-12-19T14:58:59.659Z,20.76
2022-12-19T14:59:42.729Z,20.75
2022-12-19T15:01:09.265Z,20.69
2022-12-19T15:01:42.885Z,20.68
2022-12-19T15:02:43.255Z,20.68
2022-12-19T15:03:43.247Z,20.71
2022-12-19T15:04:52.415Z,20.75
2022-12-19T15:05:43.168Z,20.76
2022-12-19T15:07:06.729Z,20.78
2022-12-19T15:07:43.305Z,20.78
2022-12-19T15:09:17.754Z,20.73
2022-12-19T15:11:16.931Z,20.73
2022-12-19T15:11:51.293Z,20.76
2022-12-19T15:14:47.698Z,20.83
2022-12-19T15:15:00.449Z,20.85
2022-12-19T15:15:05.502Z,20.83
2022-12-19T15:16:05.855Z,20.87
2022-12-19T15:17:05.653Z,20.87
2022-12-19T15:18:05.721Z,20.88
2022-12-19T15:19:05.859Z,20.91
2022-12-19T15:20:05.883Z,20.88
2022-12-19T15:21:05.997Z,20.87
2022-12-19T15:22:06.030Z,20.85
2022-12-19T15:23:06.124Z,20.87
2022-12-19T15:24:06.185Z,20.83
2022-12-19T15:25:06.266Z,20.81
2022-12-19T15:26:07.674Z,20.79
2022-12-19T15:27:06.405Z,20.79
2022-12-19T15:28:06.483Z,20.82
2022-12-19T15:29:06.555Z,20.83
2022-12-19T15:30:06.618Z,20.83
2022-12-19T15:31:06.861Z,20.82
2022-12-19T15:32:06.785Z,20.85
2022-12-19T15:33:06.848Z,20.88
2022-12-19T15:34:33.737Z,20.87
2022-12-19T15:35:07.020Z,20.88
2022-12-19T15:36:07.115Z,20.82
2022-12-19T15:37:07.180Z,20.81
2022-12-19T15:38:07.240Z,20.79
2022-12-19T15:39:07.356Z,20.79
2022-12-19T15:40:07.382Z,20.78
2022-12-19T15:41:13.829Z,20.81
2022-12-19T15:42:07.565Z,20.83
2022-12-19T15:43:14.320Z,20.79
2022-12-19T15:44:07.785Z,20.79
2022-12-19T15:45:07.812Z,20.79
2022-12-19T15:46:08.006Z,20.78
2022-12-19T15:47:08.075Z,20.78
2022-12-19T15:48:08.045Z,20.79
2022-12-19T15:49:08.110Z,20.76
2022-12-19T15:50:08.202Z,20.72
2022-12-19T15:51:08.289Z,20.75
2022-12-19T15:52:08.336Z,20.78
2022-12-19T15:53:12.455Z,20.81
2022-12-19T15:54:46.566Z,20.79
2022-12-19T15:55:08.602Z,20.82
2022-12-19T15:56:08.671Z,20.81
2022-12-19T15:57:08.749Z,20.85
2022-12-19T15:58:08.857Z,20.83
2022-12-19T15:59:08.912Z,20.85
2022-12-19T16:00:08.995Z,20.83
2022-12-19T16:01:09.074Z,20.82
2022-12-19T16:02:09.290Z,20.78
2022-12-19T16:03:25.549Z,20.69
2022-12-19T16:04:09.505Z,20.66
2022-12-19T16:05:09.534Z,20.61
2022-12-19T16:06:09.472Z,20.61
2022-12-19T16:07:09.550Z,20.57
2022-12-19T16:08:09.633Z,20.57
2022-12-19T16:09:09.695Z,20.56
2022-12-19T16:10:09.783Z,20.56
2022-12-19T16:11:09.894Z,20.53
2022-12-19T16:12:09.923Z,20.50
2022-12-19T16:13:10.040Z,20.50
2022-12-19T16:14:10.117Z,20.46
2022-12-19T16:15:10.194Z,20.48
2022-12-19T16:16:15.298Z,20.48
2022-12-19T16:17:10.363Z,20.48
2022-12-19T16:18:10.424Z,20.50
2022-12-19T16:19:10.491Z,20.44
2022-12-19T16:20:10.568Z,20.46
2022-12-19T16:21:10.660Z,20.40
2022-12-19T16:22:10.725Z,20.38
2022-12-19T16:23:10.819Z,20.41
2022-12-19T16:24:10.907Z,20.40
2022-12-19T16:25:10.976Z,20.40
2022-12-19T16:26:11.069Z,20.38
2022-12-19T16:27:11.148Z,20.37
2022-12-19T16:28:11.232Z,20.35
2022-12-19T16:29:11.318Z,20.34
2022-12-19T16:30:18.160Z,20.35
2022-12-19T16:31:11.547Z,20.35
2022-12-19T16:32:11.568Z,20.38
2022-12-19T16:33:11.635Z,20.35
2022-12-19T16:34:11.701Z,20.34
2022-12-19T16:35:11.779Z,20.35
2022-12-19T16:36:11.874Z,20.37
2022-12-19T16:37:11.945Z,20.35
2022-12-19T16:38:12.016Z,20.34
2022-12-19T16:39:12.084Z,20.35
2022-12-19T16:40:12.161Z,20.34
2022-12-19T16:41:12.286Z,20.38
2022-12-19T16:42:12.312Z,20.37
2022-12-19T16:43:12.408Z,20.37
2022-12-19T16:44:17.312Z,20.33
2022-12-19T16:45:12.583Z,20.38
2022-12-19T16:46:12.670Z,20.37
2022-12-19T16:47:12.800Z,20.37
2022-12-19T16:48:12.812Z,20.35
2022-12-19T16:49:12.906Z,20.33
2022-12-19T16:50:12.993Z,20.33
2022-12-19T16:51:13.080Z,20.30
2022-12-19T16:52:13.152Z,20.30
2022-12-19T16:53:13.260Z,20.30
2022-12-19T16:54:13.320Z,20.33
2022-12-19T16:55:13.394Z,20.33
2022-12-19T16:56:13.464Z,20.31
2022-12-19T16:57:13.553Z,20.31
2022-12-19T16:58:13.628Z,20.34
2022-12-19T16:59:13.701Z,20.33
2022-12-19T17:00:13.798Z,20.33
2022-12-19T17:01:13.958Z,20.35
2022-12-19T17:02:14.083Z,20.34
2022-12-19T17:03:14.167Z,20.33
2022-12-19T17:04:14.089Z,20.27
2022-12-19T17:05:14.160Z,20.31
2022-12-19T17:06:14.261Z,20.34
2022-12-19T17:07:14.352Z,20.33
2022-12-19T17:08:14.421Z,20.31
2022-12-19T17:09:14.505Z,20.30
2022-12-19T17:10:14.582Z,20.27
2022-12-19T17:11:14.687Z,20.26
2022-12-19T17:12:14.749Z,20.30
2022-12-19T17:13:14.858Z,20.31
2022-12-19T17:14:14.904Z,20.31
2022-12-19T17:15:14.977Z,20.31
2022-12-19T17:16:15.148Z,20.30
2022-12-19T17:17:15.149Z,20.33
2022-12-19T17:18:15.225Z,20.33
2022-12-19T17:19:16.013Z,20.34
2022-12-19T17:20:15.401Z,20.42
2022-12-19T17:21:15.486Z,20.56
2022-12-19T17:22:15.563Z,20.54
2022-12-19T17:23:15.631Z,20.51
2022-12-19T17:24:15.716Z,20.50
2022-12-19T17:25:15.811Z,20.50
2022-12-19T17:26:18.146Z,20.56
2022-12-19T17:27:15.929Z,20.56
2022-12-19T17:28:16.054Z,20.51
2022-12-19T17:29:16.070Z,20.51
2022-12-19T17:30:16.138Z,20.56
2022-12-19T17:31:16.385Z,20.61
2022-12-19T17:32:23.296Z,20.53
2022-12-19T17:33:16.399Z,20.57
2022-12-19T17:34:16.479Z,20.51
2022-12-19T17:35:16.560Z,20.48
2022-12-19T17:36:23.065Z,20.48
2022-12-19T17:37:16.716Z,20.38
2022-12-19T17:38:16.784Z,20.37
2022-12-19T17:39:16.859Z,20.37
2022-12-19T17:40:16.936Z,20.35
2022-12-19T17:41:17.020Z,20.37
2022-12-19T17:42:17.110Z,20.35
2022-12-19T17:43:17.159Z,20.31
2022-12-19T17:44:17.224Z,20.33
2022-12-19T17:45:17.298Z,20.33
2022-12-19T17:46:17.524Z,20.30
2022-12-19T17:47:17.467Z,20.27
2022-12-19T17:48:17.536Z,20.27
2022-12-19T17:49:17.615Z,20.25
2022-12-19T17:50:17.695Z,20.23
2022-12-19T17:51:17.799Z,20.25
2022-12-19T17:52:17.835Z,20.17
2022-12-19T17:53:17.941Z,20.19
2022-12-19T17:54:18.011Z,20.19
2022-12-19T17:55:18.080Z,20.17
2022-12-19T17:56:18.164Z,20.16
2022-12-19T17:57:18.243Z,20.15
2022-12-19T17:58:18.311Z,20.15
2022-12-19T17:59:18.396Z,20.13
2022-12-19T18:00:18.441Z,20.08
2022-12-19T18:01:18.672Z,20.07
2022-12-19T18:02:18.794Z,20.07
2022-12-19T18:03:18.881Z,20.07
2022-12-19T18:04:18.776Z,20.04
2022-12-19T18:05:18.839Z,20.04
2022-12-19T18:06:18.948Z,20.04
2022-12-19T18:07:18.986Z,20.02
2022-12-19T18:08:19.063Z,20.04
2022-12-19T18:09:19.135Z,20.02
2022-12-19T18:10:19.199Z,20.00
2022-12-19T18:11:19.329Z,19.97
2022-12-19T18:12:19.376Z,19.92
2022-12-19T18:13:19.448Z,19.92
2022-12-19T18:14:19.563Z,19.92
2022-12-19T18:15:19.592Z,19.92
2022-12-19T18:16:19.746Z,19.90
2022-12-19T18:17:19.800Z,19.90
2022-12-19T18:18:19.813Z,19.86
2022-12-19T18:19:19.883Z,19.85
2022-12-19T18:20:19.958Z,19.87
2022-12-19T18:21:20.053Z,19.87
2022-12-19T18:22:20.125Z,19.87
2022-12-19T18:23:20.204Z,19.85
2022-12-19T18:24:20.263Z,19.87
2022-12-19T18:25:20.326Z,19.83
2022-12-19T18:26:20.418Z,19.79
2022-12-19T18:27:20.508Z,19.79
2022-12-19T18:28:20.606Z,19.78
2022-12-19T18:29:20.659Z,19.76
2022-12-19T18:30:20.757Z,19.78
2022-12-19T18:31:20.968Z,19.76
2022-12-19T18:32:20.912Z,19.78
2022-12-19T18:33:20.980Z,19.76
2022-12-19T18:34:21.058Z,19.76
2022-12-19T18:35:21.133Z,19.76
2022-12-19T18:36:21.229Z,19.80
2022-12-19T18:37:21.311Z,19.79
2022-12-19T18:38:21.384Z,19.78
2022-12-19T18:39:21.495Z,19.76
2022-12-19T18:40:27.545Z,19.75
2022-12-19T18:41:21.687Z,19.71
2022-12-19T18:42:21.722Z,19.75
2022-12-19T18:43:21.792Z,19.72
2022-12-19T18:44:21.873Z,19.75
2022-12-19T18:45:21.954Z,19.72
2022-12-19T18:46:22.143Z,19.72
2022-12-19T18:47:22.097Z,19.71
2022-12-19T18:48:22.175Z,19.71
2022-12-19T18:49:22.243Z,19.70
2022-12-19T18:50:22.322Z,19.70
2022-12-19T18:51:22.429Z,19.71
2022-12-19T18:52:22.472Z,19.68
2022-12-19T18:53:22.605Z,19.67
2022-12-19T18:54:22.654Z,19.67
2022-12-19T18:55:22.732Z,19.67
2022-12-19T18:56:22.848Z,19.67
2022-12-19T18:57:22.906Z,19.68
2022-12-19T18:58:22.975Z,19.65
2022-12-19T18:59:23.047Z,19.65
2022-12-19T19:00:23.132Z,19.65
2022-12-19T19:01:23.448Z,19.65
2022-12-19T19:02:23.416Z,19.65
2022-12-19T19:03:23.563Z,19.65
2022-12-19T19:04:23.555Z,19.64
2022-12-19T19:05:23.572Z,19.65
2022-12-19T19:06:23.637Z,19.62
2022-12-19T19:07:23.760Z,19.61
2022-12-19T19:08:23.783Z,19.60
2022-12-19T19:09:23.850Z,19.60
2022-12-19T19:10:23.941Z,19.58
2022-12-19T19:11:24.064Z,19.55
2022-12-19T19:12:24.145Z,19.57
2022-12-19T19:13:24.205Z,19.57
2022-12-19T19:14:24.275Z,19.57
2022-12-19T19:15:24.338Z,19.57
2022-12-19T19:16:24.533Z,19.57
2022-12-19T19:17:24.555Z,19.58
2022-12-19T19:18:24.573Z,19.58
2022-12-19T19:19:24.640Z,19.57
2022-12-19T19:20:24.709Z,19.57
2022-12-19T19:21:24.774Z,19.58
2022-12-19T19:22:24.863Z,19.57
2022-12-19T19:23:24.926Z,19.55
2022-12-19T19:24:24.990Z,19.53
2022-12-19T19:25:25.059Z,19.52
2022-12-19T19:26:25.151Z,19.49
2022-12-19T19:27:25.232Z,19.47
2022-12-19T19:28:25.296Z,19.49
2022-12-19T19:29:25.371Z,19.49
2022-12-19T19:30:25.441Z,19.49
2022-12-19T19:31:25.577Z,19.49
2022-12-19T19:32:25.626Z,19.50
2022-12-19T19:33:25.688Z,19.52
2022-12-19T19:34:25.755Z,19.52
2022-12-19T19:35:25.831Z,19.52
2022-12-19T19:36:25.896Z,19.52
2022-12-19T19:37:25.973Z,19.50
2022-12-19T19:38:26.066Z,19.52
2022-12-19T19:39:26.122Z,19.50
2022-12-19T19:40:26.187Z,19.50
2022-12-19T19:41:26.248Z,19.47
2022-12-19T19:42:26.327Z,19.46
2022-12-19T19:43:26.404Z,19.43
2022-12-19T19:44:26.467Z,19.43
2022-12-19T19:45:26.532Z,19.43
2022-12-19T19:46:26.709Z,19.45
2022-12-19T19:47:26.809Z,19.46
2022-12-19T19:48:26.817Z,19.45
2022-12-19T19:49:26.895Z,19.43
2022-12-19T19:50:26.958Z,19.45
2022-12-19T19:51:27.020Z,19.45
2022-12-19T19:52:27.099Z,19.43
2022-12-19T19:53:27.169Z,19.45
2022-12-19T19:54:27.265Z,19.45
2022-12-19T19:55:27.331Z,19.45
2022-12-19T19:56:27.417Z,19.45
2022-12-19T19:57:27.499Z,19.43
2022-12-19T19:58:27.574Z,19.43
2022-12-19T19:59:27.639Z,19.43
2022-12-19T20:00:27.710Z,19.38
2022-12-19T20:01:27.961Z,19.42
2022-12-19T20:02:28.172Z,19.40
2022-12-19T20:03:28.237Z,19.38
2022-12-19T20:04:28.258Z,19.40
2022-12-19T20:05:28.112Z,19.39
2022-12-19T20:06:28.204Z,19.39
2022-12-19T20:07:28.266Z,19.40
2022-12-19T20:08:32.219Z,19.40
2022-12-19T20:09:28.419Z,19.43
2022-12-19T20:10:28.483Z,19.42
2022-12-19T20:11:28.559Z,19.42
2022-12-19T20:12:28.628Z,19.42
2022-12-19T20:13:28.702Z,19.43
2022-12-19T20:14:28.812Z,19.43
2022-12-19T20:15:28.950Z,19.45
2022-12-19T20:16:29.018Z,19.45
2022-12-19T20:17:29.056Z,19.43
2022-12-19T20:18:29.132Z,19.42
2022-12-19T20:19:29.203Z,19.40
2022-12-19T20:20:29.273Z,19.42
2022-12-19T20:21:29.351Z,19.45
2022-12-19T20:22:29.446Z,19.45
2022-12-19T20:23:29.512Z,19.43
2022-12-19T20:24:29.579Z,19.43
2022-12-19T20:25:29.644Z,19.40
2022-12-19T20:26:29.710Z,19.43
2022-12-19T20:27:29.801Z,19.42
2022-12-19T20:28:29.870Z,19.40
2022-12-19T20:29:29.960Z,19.38
2022-12-19T20:30:30.030Z,19.35
2022-12-19T20:31:30.248Z,19.34
2022-12-19T20:32:30.218Z,19.35
2022-12-19T20:33:30.293Z,19.32
2022-12-19T20:34:30.376Z,19.32
2022-12-19T20:35:30.433Z,19.34
2022-12-19T20:36:30.520Z,19.38
2022-12-19T20:37:30.649Z,19.38
2022-12-19T20:38:30.668Z,19.35
2022-12-19T20:39:30.737Z,19.34
2022-12-19T20:40:30.801Z,19.32
2022-12-19T20:41:30.874Z,19.30
2022-12-19T20:42:30.977Z,19.34
2022-12-19T20:43:31.037Z,19.35
2022-12-19T20:44:31.104Z,19.30
2022-12-19T20:45:31.165Z,19.28
2022-12-19T20:46:31.292Z,19.25
2022-12-19T20:47:31.349Z,19.30
2022-12-19T20:48:31.397Z,19.30
2022-12-19T20:49:31.470Z,19.30
2022-12-19T20:50:31.541Z,19.28
2022-12-19T20:51:31.633Z,19.27
2022-12-19T20:52:31.729Z,19.25
2022-12-19T20:53:31.761Z,19.27
2022-12-19T20:54:31.833Z,19.25
2022-12-19T20:55:31.907Z,19.28
2022-12-19T20:56:31.996Z,19.24
2022-12-19T20:57:32.070Z,19.21
2022-12-19T20:58:32.157Z,19.24
2022-12-19T20:59:32.219Z,19.25
2022-12-19T21:00:32.315Z,19.25
2022-12-19T21:01:32.514Z,19.21
2022-12-19T21:02:52.593Z,19.23
2022-12-19T21:03:32.833Z,19.23
2022-12-19T21:04:32.879Z,19.23
2022-12-19T21:05:32.725Z,19.24
2022-12-19T21:06:32.782Z,19.23
2022-12-19T21:07:32.859Z,19.23
2022-12-19T21:08:32.937Z,19.21
2022-12-19T21:09:33.012Z,19.20
2022-12-19T21:10:33.078Z,19.21
2022-12-19T21:11:33.169Z,19.23
2022-12-19T21:12:33.202Z,19.20
2022-12-19T21:13:33.298Z,19.21
2022-12-19T21:14:33.364Z,19.20
2022-12-19T21:15:33.457Z,19.21
2022-12-19T21:16:33.546Z,19.21
2022-12-19T21:17:33.606Z,19.17
2022-12-19T21:18:33.673Z,19.21
2022-12-19T21:19:33.743Z,19.17
2022-12-19T21:20:34.484Z,19.16
2022-12-19T21:21:33.932Z,19.13
2022-12-19T21:22:33.997Z,19.16
2022-12-19T21:23:34.101Z,19.16
2022-12-19T21:24:34.156Z,19.17
2022-12-19T21:25:34.225Z,19.15
2022-12-19T21:26:34.304Z,19.15
2022-12-19T21:27:34.379Z,19.15
2022-12-19T21:28:34.459Z,19.16
2022-12-19T21:29:34.534Z,19.15
2022-12-19T21:30:34.593Z,19.15
2022-12-19T21:31:34.792Z,19.15
2022-12-19T21:32:34.765Z,19.13
2022-12-19T21:33:34.866Z,19.15
2022-12-19T21:34:34.943Z,19.15
2022-12-19T21:35:35.007Z,19.12
2022-12-19T21:36:35.073Z,19.13
2022-12-19T21:37:41.598Z,19.13
2022-12-19T21:38:35.238Z,19.15
2022-12-19T21:39:35.310Z,19.16
2022-12-19T21:40:35.383Z,19.15
2022-12-19T21:41:35.460Z,19.12
2022-12-19T21:42:35.568Z,19.12
2022-12-19T21:43:35.648Z,19.10
2022-12-19T21:44:35.676Z,19.12
2022-12-19T21:45:35.761Z,19.10
2022-12-19T21:46:35.875Z,19.09
2022-12-19T21:47:35.894Z,19.07
2022-12-19T21:48:35.986Z,19.09
2022-12-19T21:49:36.046Z,19.07
2022-12-19T21:50:36.128Z,19.07
2022-12-19T21:51:36.202Z,19.10
2022-12-19T21:52:36.274Z,19.09
2022-12-19T21:53:36.373Z,19.06
2022-12-19T21:54:36.440Z,19.06
2022-12-19T21:55:36.523Z,19.10
2022-12-19T21:56:36.577Z,19.09
2022-12-19T21:57:36.641Z,19.10
2022-12-19T21:58:36.732Z,19.10
2022-12-19T21:59:36.797Z,19.06
2022-12-19T22:00:36.976Z,19.05
2022-12-19T22:01:37.108Z,19.01
2022-12-19T22:02:37.237Z,19.01
2022-12-19T22:03:37.342Z,19.06
2022-12-19T22:04:37.224Z,19.06
2022-12-19T22:05:37.287Z,19.05
2022-12-19T22:06:37.360Z,19.01
2022-12-19T22:07:37.443Z,19.06
2022-12-19T22:08:37.548Z,19.09
2022-12-19T22:09:37.615Z,19.06
2022-12-19T22:10:37.678Z,19.05
2022-12-19T22:11:37.740Z,19.01
2022-12-19T22:12:37.845Z,18.99
2022-12-19T22:13:37.930Z,18.99
2022-12-19T22:14:37.993Z,19.02
2022-12-19T22:15:38.068Z,19.02
2022-12-19T22:16:38.173Z,19.01
2022-12-19T22:17:38.212Z,19.01
2022-12-19T22:18:38.305Z,18.97
2022-12-19T22:19:38.361Z,18.99
2022-12-19T22:20:38.458Z,18.99
2022-12-19T22:21:38.528Z,18.97
2022-12-19T22:22:38.600Z,18.97
2022-12-19T22:23:38.693Z,18.96
2022-12-19T22:24:38.760Z,18.94
2022-12-19T22:25:38.841Z,18.99
2022-12-19T22:26:38.906Z,18.99
2022-12-19T22:27:38.992Z,18.97
2022-12-19T22:28:39.070Z,18.99
2022-12-19T22:29:39.135Z,18.94
2022-12-19T22:30:39.220Z,18.96
2022-12-19T22:31:39.407Z,18.97
2022-12-19T22:32:39.352Z,18.97
2022-12-19T22:33:39.447Z,18.97